sensor_id;sensor_type;location;lat;lon;timestamp;pressure;altitude;pressure_sealevel;temperature
10598;BMP180;5346;48.766;8.674;2023-06-22T00:00:13;94287.00;;;18.90
10598;BMP180;5346;48.766;8.674;2023-06-22T00:02:48;94292.00;;;19.00
10598;BMP180;5346;48.766;8.674;2023-06-22T00:05:17;94300.00;;;18.90
10598;BMP180;5346;48.766;8.674;2023-06-22T00:07:51;94302.00;;;18.90
10598;BMP180;5346;48.766;8.674;2023-06-22T00:10:27;94301.00;;;18.80
10598;BMP180;5346;48.766;8.674;2023-06-22T00:13:01;94310.00;;;18.70
10598;BMP180;5346;48.766;8.674;2023-06-22T00:15:30;94313.00;;;18.70
10598;BMP180;5346;48.766;8.674;2023-06-22T00:18:07;94304.00;;;18.70
10598;BMP180;5346;48.766;8.674;2023-06-22T00:20:42;94299.00;;;18.60
10598;BMP180;5346;48.766;8.674;2023-06-22T00:23:10;94295.00;;;18.60
10598;BMP180;5346;48.766;8.674;2023-06-22T00:25:38;94296.00;;;18.50
10598;BMP180;5346;48.766;8.674;2023-06-22T00:28:16;94296.00;;;18.50
10598;BMP180;5346;48.766;8.674;2023-06-22T00:30:44;94299.00;;;18.70
10598;BMP180;5346;48.766;8.674;2023-06-22T00:33:20;94338.00;;;18.70
10598;BMP180;5346;48.766;8.674;2023-06-22T00:35:54;94391.00;;;18.80
10598;BMP180;5346;48.766;8.674;2023-06-22T00:38:28;94403.00;;;18.70
10598;BMP180;5346;48.766;8.674;2023-06-22T00:41:02;94411.00;;;18.70
10598;BMP180;5346;48.766;8.674;2023-06-22T00:43:36;94397.00;;;18.70
10598;BMP180;5346;48.766;8.674;2023-06-22T00:46:10;94358.00;;;18.60
10598;BMP180;5346;48.766;8.674;2023-06-22T00:48:44;94347.00;;;18.60
10598;BMP180;5346;48.766;8.674;2023-06-22T00:51:12;94348.00;;;18.40
10598;BMP180;5346;48.766;8.674;2023-06-22T00:53:46;94328.00;;;18.10
10598;BMP180;5346;48.766;8.674;2023-06-22T00:56:15;94316.00;;;18.10
10598;BMP180;5346;48.766;8.674;2023-06-22T00:58:54;94300.00;;;18.20
10598;BMP180;5346;48.766;8.674;2023-06-22T01:01:21;94294.00;;;17.90
10598;BMP180;5346;48.766;8.674;2023-06-22T01:03:57;94295.00;;;17.70
10598;BMP180;5346;48.766;8.674;2023-06-22T01:06:38;94307.00;;;17.60
10598;BMP180;5346;48.766;8.674;2023-06-22T01:09:20;94260.00;;;17.60
10598;BMP180;5346;48.766;8.674;2023-06-22T01:11:57;94295.00;;;17.60
10598;BMP180;5346;48.766;8.674;2023-06-22T01:14:52;94295.00;;;17.80
10598;BMP180;5346;48.766;8.674;2023-06-22T01:17:21;94288.00;;;17.90
10598;BMP180;5346;48.766;8.674;2023-06-22T01:19:56;94241.00;;;17.90
10598;BMP180;5346;48.766;8.674;2023-06-22T01:22:31;94285.00;;;17.90
10598;BMP180;5346;48.766;8.674;2023-06-22T01:25:20;94276.00;;;17.80
10598;BMP180;5346;48.766;8.674;2023-06-22T01:28:02;94295.00;;;17.60
10598;BMP180;5346;48.766;8.674;2023-06-22T01:30:37;94298.00;;;17.50
10598;BMP180;5346;48.766;8.674;2023-06-22T01:33:10;94267.00;;;17.40
10598;BMP180;5346;48.766;8.674;2023-06-22T01:35:44;94288.00;;;17.30
10598;BMP180;5346;48.766;8.674;2023-06-22T01:38:18;94270.00;;;17.40
10598;BMP180;5346;48.766;8.674;2023-06-22T01:40:53;94299.00;;;17.30
10598;BMP180;5346;48.766;8.674;2023-06-22T01:43:28;94260.00;;;17.30
10598;BMP180;5346;48.766;8.674;2023-06-22T01:45:59;94295.00;;;17.30
10598;BMP180;5346;48.766;8.674;2023-06-22T01:48:34;94294.00;;;17.30
10598;BMP180;5346;48.766;8.674;2023-06-22T01:51:03;94314.00;;;17.30
10598;BMP180;5346;48.766;8.674;2023-06-22T01:53:36;94273.00;;;17.40
10598;BMP180;5346;48.766;8.674;2023-06-22T01:56:04;94298.00;;;17.30
10598;BMP180;5346;48.766;8.674;2023-06-22T01:59:12;94295.00;;;17.30
10598;BMP180;5346;48.766;8.674;2023-06-22T02:02:13;94312.00;;;17.30
10598;BMP180;5346;48.766;8.674;2023-06-22T02:04:57;94321.00;;;17.20
10598;BMP180;5346;48.766;8.674;2023-06-22T02:07:33;94302.00;;;17.10
10598;BMP180;5346;48.766;8.674;2023-06-22T02:10:11;94302.00;;;17.20
10598;BMP180;5346;48.766;8.674;2023-06-22T02:12:44;94289.00;;;17.30
10598;BMP180;5346;48.766;8.674;2023-06-22T02:15:19;94251.00;;;17.20
10598;BMP180;5346;48.766;8.674;2023-06-22T02:17:48;94297.00;;;17.20
10598;BMP180;5346;48.766;8.674;2023-06-22T02:20:24;94286.00;;;17.40
10598;BMP180;5346;48.766;8.674;2023-06-22T02:22:51;94276.00;;;17.40
10598;BMP180;5346;48.766;8.674;2023-06-22T02:25:25;94263.00;;;17.30
10598;BMP180;5346;48.766;8.674;2023-06-22T02:27:59;94259.00;;;17.20
10598;BMP180;5346;48.766;8.674;2023-06-22T02:30:33;94248.00;;;17.30
10598;BMP180;5346;48.766;8.674;2023-06-22T02:33:07;94248.00;;;17.30
10598;BMP180;5346;48.766;8.674;2023-06-22T02:35:41;94278.00;;;17.30
10598;BMP180;5346;48.766;8.674;2023-06-22T02:38:18;94223.00;;;17.30
10598;BMP180;5346;48.766;8.674;2023-06-22T02:40:52;94280.00;;;17.30
10598;BMP180;5346;48.766;8.674;2023-06-22T02:43:20;94289.00;;;17.30
10598;BMP180;5346;48.766;8.674;2023-06-22T02:45:47;94275.00;;;17.30
10598;BMP180;5346;48.766;8.674;2023-06-22T02:48:20;94246.00;;;17.20
10598;BMP180;5346;48.766;8.674;2023-06-22T02:50:54;94267.00;;;17.10
10598;BMP180;5346;48.766;8.674;2023-06-22T02:53:28;94252.00;;;17.20
10598;BMP180;5346;48.766;8.674;2023-06-22T02:55:56;94272.00;;;17.30
10598;BMP180;5346;48.766;8.674;2023-06-22T02:58:29;94266.00;;;17.40
10598;BMP180;5346;48.766;8.674;2023-06-22T03:00:57;94249.00;;;17.30
10598;BMP180;5346;48.766;8.674;2023-06-22T03:03:32;94260.00;;;17.30
10598;BMP180;5346;48.766;8.674;2023-06-22T03:05:59;94249.00;;;17.20
10598;BMP180;5346;48.766;8.674;2023-06-22T03:08:36;94273.00;;;17.20
10598;BMP180;5346;48.766;8.674;2023-06-22T03:11:10;94244.00;;;17.20
10598;BMP180;5346;48.766;8.674;2023-06-22T03:13:45;94266.00;;;17.20
10598;BMP180;5346;48.766;8.674;2023-06-22T03:16:13;94263.00;;;17.20
10598;BMP180;5346;48.766;8.674;2023-06-22T03:18:48;94239.00;;;17.10
10598;BMP180;5346;48.766;8.674;2023-06-22T03:21:23;94242.00;;;17.10
10598;BMP180;5346;48.766;8.674;2023-06-22T03:23:51;94236.00;;;17.00
10598;BMP180;5346;48.766;8.674;2023-06-22T03:26:25;94236.00;;;17.00
10598;BMP180;5346;48.766;8.674;2023-06-22T03:28:54;94229.00;;;16.90
10598;BMP180;5346;48.766;8.674;2023-06-22T03:31:22;94260.00;;;16.90
10598;BMP180;5346;48.766;8.674;2023-06-22T03:33:56;94222.00;;;16.90
10598;BMP180;5346;48.766;8.674;2023-06-22T03:36:24;94253.00;;;16.90
10598;BMP180;5346;48.766;8.674;2023-06-22T03:38:59;94252.00;;;17.00
10598;BMP180;5346;48.766;8.674;2023-06-22T03:41:32;94207.00;;;17.00
10598;BMP180;5346;48.766;8.674;2023-06-22T03:44:00;94236.00;;;17.10
10598;BMP180;5346;48.766;8.674;2023-06-22T03:46:33;94226.00;;;17.10
10598;BMP180;5346;48.766;8.674;2023-06-22T03:49:07;94241.00;;;17.10
10598;BMP180;5346;48.766;8.674;2023-06-22T03:51:41;94252.00;;;17.20
10598;BMP180;5346;48.766;8.674;2023-06-22T03:54:16;94232.00;;;17.30
10598;BMP180;5346;48.766;8.674;2023-06-22T03:56:50;94240.00;;;17.30
10598;BMP180;5346;48.766;8.674;2023-06-22T03:59:25;94233.00;;;17.30
10598;BMP180;5346;48.766;8.674;2023-06-22T04:01:59;94236.00;;;17.30
10598;BMP180;5346;48.766;8.674;2023-06-22T04:04:28;94213.00;;;17.40
10598;BMP180;5346;48.766;8.674;2023-06-22T04:06:56;94229.00;;;17.40
10598;BMP180;5346;48.766;8.674;2023-06-22T04:09:30;94209.00;;;17.50
10598;BMP180;5346;48.766;8.674;2023-06-22T04:12:04;94232.00;;;17.50
10598;BMP180;5346;48.766;8.674;2023-06-22T04:14:39;94208.00;;;17.60
10598;BMP180;5346;48.766;8.674;2023-06-22T04:17:06;94194.00;;;17.70
10598;BMP180;5346;48.766;8.674;2023-06-22T04:19:41;94207.00;;;17.80
10598;BMP180;5346;48.766;8.674;2023-06-22T04:22:08;94224.00;;;17.90
10598;BMP180;5346;48.766;8.674;2023-06-22T04:24:44;94219.00;;;18.00
10598;BMP180;5346;48.766;8.674;2023-06-22T04:27:12;94217.00;;;18.00
10598;BMP180;5346;48.766;8.674;2023-06-22T04:29:46;94220.00;;;18.10
10598;BMP180;5346;48.766;8.674;2023-06-22T04:32:21;94214.00;;;18.20
10598;BMP180;5346;48.766;8.674;2023-06-22T04:34:49;94199.00;;;18.30
10598;BMP180;5346;48.766;8.674;2023-06-22T04:37:28;94196.00;;;18.40
10598;BMP180;5346;48.766;8.674;2023-06-22T04:39:59;94214.00;;;18.50
10598;BMP180;5346;48.766;8.674;2023-06-22T04:42:39;94193.00;;;18.60
10598;BMP180;5346;48.766;8.674;2023-06-22T04:45:13;94189.00;;;18.80
10598;BMP180;5346;48.766;8.674;2023-06-22T04:47:58;94177.00;;;18.80
10598;BMP180;5346;48.766;8.674;2023-06-22T04:50:32;94199.00;;;18.90
10598;BMP180;5346;48.766;8.674;2023-06-22T04:52:59;94176.00;;;19.00
10598;BMP180;5346;48.766;8.674;2023-06-22T04:55:35;94184.00;;;19.10
10598;BMP180;5346;48.766;8.674;2023-06-22T04:58:05;94195.00;;;19.20
10598;BMP180;5346;48.766;8.674;2023-06-22T05:00:42;94198.00;;;19.20
10598;BMP180;5346;48.766;8.674;2023-06-22T05:03:19;94150.00;;;19.30
10598;BMP180;5346;48.766;8.674;2023-06-22T05:05:53;94155.00;;;19.10
10598;BMP180;5346;48.766;8.674;2023-06-22T05:08:34;94170.00;;;19.20
10598;BMP180;5346;48.766;8.674;2023-06-22T05:11:08;94163.00;;;19.30
10598;BMP180;5346;48.766;8.674;2023-06-22T05:13:42;94185.00;;;19.40
10598;BMP180;5346;48.766;8.674;2023-06-22T05:16:10;94182.00;;;19.40
10598;BMP180;5346;48.766;8.674;2023-06-22T05:18:44;94146.00;;;19.50
10598;BMP180;5346;48.766;8.674;2023-06-22T05:21:15;94147.00;;;19.70
10598;BMP180;5346;48.766;8.674;2023-06-22T05:23:51;94178.00;;;19.70
10598;BMP180;5346;48.766;8.674;2023-06-22T05:26:22;94170.00;;;19.70
10598;BMP180;5346;48.766;8.674;2023-06-22T05:28:56;94152.00;;;19.80
10598;BMP180;5346;48.766;8.674;2023-06-22T05:31:24;94151.00;;;19.80
10598;BMP180;5346;48.766;8.674;2023-06-22T05:34:01;94161.00;;;20.00
10598;BMP180;5346;48.766;8.674;2023-06-22T05:36:36;94169.00;;;20.10
10598;BMP180;5346;48.766;8.674;2023-06-22T05:39:14;94143.00;;;20.30
10598;BMP180;5346;48.766;8.674;2023-06-22T05:41:48;94153.00;;;20.40
10598;BMP180;5346;48.766;8.674;2023-06-22T05:44:22;94164.00;;;20.40
10598;BMP180;5346;48.766;8.674;2023-06-22T05:46:49;94156.00;;;20.50
10598;BMP180;5346;48.766;8.674;2023-06-22T05:49:23;94180.00;;;20.70
10598;BMP180;5346;48.766;8.674;2023-06-22T05:51:56;94135.00;;;20.90
10598;BMP180;5346;48.766;8.674;2023-06-22T05:54:31;94170.00;;;21.00
10598;BMP180;5346;48.766;8.674;2023-06-22T05:57:06;94177.00;;;21.00
10598;BMP180;5346;48.766;8.674;2023-06-22T05:59:39;94131.00;;;21.40
10598;BMP180;5346;48.766;8.674;2023-06-22T06:02:07;94165.00;;;21.50
10598;BMP180;5346;48.766;8.674;2023-06-22T06:04:42;94166.00;;;21.70
10598;BMP180;5346;48.766;8.674;2023-06-22T06:07:09;94169.00;;;22.00
10598;BMP180;5346;48.766;8.674;2023-06-22T06:09:50;94170.00;;;22.40
10598;BMP180;5346;48.766;8.674;2023-06-22T06:12:20;94147.00;;;22.60
10598;BMP180;5346;48.766;8.674;2023-06-22T06:14:55;94153.00;;;23.00
10598;BMP180;5346;48.766;8.674;2023-06-22T06:17:23;94125.00;;;23.20
10598;BMP180;5346;48.766;8.674;2023-06-22T06:20:00;94154.00;;;23.20
10598;BMP180;5346;48.766;8.674;2023-06-22T06:22:28;94149.00;;;23.30
10598;BMP180;5346;48.766;8.674;2023-06-22T06:24:55;94157.00;;;23.20
10598;BMP180;5346;48.766;8.674;2023-06-22T06:27:29;94155.00;;;23.10
10598;BMP180;5346;48.766;8.674;2023-06-22T06:29:57;94136.00;;;23.50
10598;BMP180;5346;48.766;8.674;2023-06-22T06:32:32;94145.00;;;23.40
10598;BMP180;5346;48.766;8.674;2023-06-22T06:34:59;94153.00;;;23.70
10598;BMP180;5346;48.766;8.674;2023-06-22T06:37:36;94156.00;;;23.70
10598;BMP180;5346;48.766;8.674;2023-06-22T06:40:12;94168.00;;;23.60
10598;BMP180;5346;48.766;8.674;2023-06-22T06:42:49;94136.00;;;23.20
10598;BMP180;5346;48.766;8.674;2023-06-22T06:45:25;94152.00;;;22.90
10598;BMP180;5346;48.766;8.674;2023-06-22T06:47:56;94144.00;;;22.80
10598;BMP180;5346;48.766;8.674;2023-06-22T06:50:30;94121.00;;;22.90
10598;BMP180;5346;48.766;8.674;2023-06-22T06:52:59;94137.00;;;22.90
10598;BMP180;5346;48.766;8.674;2023-06-22T06:55:34;94136.00;;;23.10
10598;BMP180;5346;48.766;8.674;2023-06-22T06:58:02;94135.00;;;23.40
10598;BMP180;5346;48.766;8.674;2023-06-22T07:00:31;94129.00;;;23.30
10598;BMP180;5346;48.766;8.674;2023-06-22T07:03:21;94129.00;;;23.40
10598;BMP180;5346;48.766;8.674;2023-06-22T07:06:01;94098.00;;;23.40
10598;BMP180;5346;48.766;8.674;2023-06-22T07:08:45;94133.00;;;23.30
10598;BMP180;5346;48.766;8.674;2023-06-22T07:11:19;94112.00;;;23.50
10598;BMP180;5346;48.766;8.674;2023-06-22T07:13:53;94131.00;;;23.60
10598;BMP180;5346;48.766;8.674;2023-06-22T07:16:28;94118.00;;;23.80
10598;BMP180;5346;48.766;8.674;2023-06-22T07:19:02;94103.00;;;23.70
10598;BMP180;5346;48.766;8.674;2023-06-22T07:21:29;94108.00;;;24.10
10598;BMP180;5346;48.766;8.674;2023-06-22T07:24:05;94111.00;;;24.20
10598;BMP180;5346;48.766;8.674;2023-06-22T07:26:39;94088.00;;;24.10
10598;BMP180;5346;48.766;8.674;2023-06-22T07:29:20;94124.00;;;24.30
10598;BMP180;5346;48.766;8.674;2023-06-22T07:31:50;94098.00;;;24.30
10598;BMP180;5346;48.766;8.674;2023-06-22T07:34:25;94117.00;;;24.30
10598;BMP180;5346;48.766;8.674;2023-06-22T07:36:52;94099.00;;;24.50
10598;BMP180;5346;48.766;8.674;2023-06-22T07:39:25;94114.00;;;24.60
10598;BMP180;5346;48.766;8.674;2023-06-22T07:42:00;94089.00;;;24.60
10598;BMP180;5346;48.766;8.674;2023-06-22T07:44:33;94068.00;;;24.90
10598;BMP180;5346;48.766;8.674;2023-06-22T07:47:01;94094.00;;;25.40
10598;BMP180;5346;48.766;8.674;2023-06-22T07:49:36;94098.00;;;25.70
10598;BMP180;5346;48.766;8.674;2023-06-22T07:52:04;94080.00;;;25.70
10598;BMP180;5346;48.766;8.674;2023-06-22T07:54:39;94122.00;;;25.60
10598;BMP180;5346;48.766;8.674;2023-06-22T07:57:06;94121.00;;;25.40
10598;BMP180;5346;48.766;8.674;2023-06-22T07:59:40;94116.00;;;25.30
10598;BMP180;5346;48.766;8.674;2023-06-22T08:02:08;94130.00;;;25.30
10598;BMP180;5346;48.766;8.674;2023-06-22T08:04:43;94142.00;;;26.00
10598;BMP180;5346;48.766;8.674;2023-06-22T08:07:17;94118.00;;;25.60
10598;BMP180;5346;48.766;8.674;2023-06-22T08:10:01;94135.00;;;26.10
10598;BMP180;5346;48.766;8.674;2023-06-22T08:12:34;94160.00;;;26.00
10598;BMP180;5346;48.766;8.674;2023-06-22T08:15:09;94164.00;;;25.40
10598;BMP180;5346;48.766;8.674;2023-06-22T08:17:44;94177.00;;;25.00
10598;BMP180;5346;48.766;8.674;2023-06-22T08:20:19;94180.00;;;24.70
10598;BMP180;5346;48.766;8.674;2023-06-22T08:22:55;94144.00;;;24.60
10598;BMP180;5346;48.766;8.674;2023-06-22T08:25:22;94185.00;;;24.30
10598;BMP180;5346;48.766;8.674;2023-06-22T08:27:57;94182.00;;;24.10
10598;BMP180;5346;48.766;8.674;2023-06-22T08:30:24;94177.00;;;23.90
10598;BMP180;5346;48.766;8.674;2023-06-22T08:32:51;94249.00;;;23.60
10598;BMP180;5346;48.766;8.674;2023-06-22T08:35:26;94226.00;;;23.40
10598;BMP180;5346;48.766;8.674;2023-06-22T08:37:54;94202.00;;;23.50
10598;BMP180;5346;48.766;8.674;2023-06-22T08:40:30;94185.00;;;23.60
10598;BMP180;5346;48.766;8.674;2023-06-22T08:43:04;94178.00;;;24.00
10598;BMP180;5346;48.766;8.674;2023-06-22T08:45:32;94162.00;;;24.70
10598;BMP180;5346;48.766;8.674;2023-06-22T08:48:08;94204.00;;;25.10
10598;BMP180;5346;48.766;8.674;2023-06-22T08:50:37;94147.00;;;25.00
10598;BMP180;5346;48.766;8.674;2023-06-22T08:53:11;94143.00;;;25.40
10598;BMP180;5346;48.766;8.674;2023-06-22T08:55:39;94116.00;;;25.60
10598;BMP180;5346;48.766;8.674;2023-06-22T08:58:13;94116.00;;;25.90
10598;BMP180;5346;48.766;8.674;2023-06-22T09:00:41;94149.00;;;26.00
10598;BMP180;5346;48.766;8.674;2023-06-22T09:03:16;94146.00;;;25.40
10598;BMP180;5346;48.766;8.674;2023-06-22T09:05:44;94142.00;;;24.90
10598;BMP180;5346;48.766;8.674;2023-06-22T09:08:18;94143.00;;;24.70
10598;BMP180;5346;48.766;8.674;2023-06-22T09:11:07;94138.00;;;24.70
10598;BMP180;5346;48.766;8.674;2023-06-22T09:13:43;94114.00;;;25.20
10598;BMP180;5346;48.766;8.674;2023-06-22T09:16:11;94104.00;;;26.10
10598;BMP180;5346;48.766;8.674;2023-06-22T09:18:49;94126.00;;;26.80
10598;BMP180;5346;48.766;8.674;2023-06-22T09:21:17;94106.00;;;27.40
10598;BMP180;5346;48.766;8.674;2023-06-22T09:23:52;94098.00;;;27.90
10598;BMP180;5346;48.766;8.674;2023-06-22T09:26:21;94098.00;;;28.20
10598;BMP180;5346;48.766;8.674;2023-06-22T09:28:57;94095.00;;;28.30
10598;BMP180;5346;48.766;8.674;2023-06-22T09:31:25;94094.00;;;28.50
10598;BMP180;5346;48.766;8.674;2023-06-22T09:33:59;94091.00;;;28.60
10598;BMP180;5346;48.766;8.674;2023-06-22T09:36:27;94076.00;;;29.20
10598;BMP180;5346;48.766;8.674;2023-06-22T09:39:02;94096.00;;;29.80
10598;BMP180;5346;48.766;8.674;2023-06-22T09:41:33;94091.00;;;29.90
10598;BMP180;5346;48.766;8.674;2023-06-22T09:44:08;94096.00;;;29.30
10598;BMP180;5346;48.766;8.674;2023-06-22T09:46:37;94108.00;;;29.10
10598;BMP180;5346;48.766;8.674;2023-06-22T09:49:11;94102.00;;;29.40
10598;BMP180;5346;48.766;8.674;2023-06-22T09:51:39;94107.00;;;30.10
10598;BMP180;5346;48.766;8.674;2023-06-22T09:54:14;94099.00;;;29.70
10598;BMP180;5346;48.766;8.674;2023-06-22T09:56:50;94097.00;;;29.70
10598;BMP180;5346;48.766;8.674;2023-06-22T09:59:24;94077.00;;;29.80
10598;BMP180;5346;48.766;8.674;2023-06-22T10:01:54;94061.00;;;30.20
10598;BMP180;5346;48.766;8.674;2023-06-22T10:04:28;94068.00;;;30.70
10598;BMP180;5346;48.766;8.674;2023-06-22T10:07:03;94083.00;;;30.50
10598;BMP180;5346;48.766;8.674;2023-06-22T10:09:45;94079.00;;;30.30
10598;BMP180;5346;48.766;8.674;2023-06-22T10:12:19;94075.00;;;30.30
10598;BMP180;5346;48.766;8.674;2023-06-22T10:14:51;94076.00;;;30.60
10598;BMP180;5346;48.766;8.674;2023-06-22T10:17:20;94075.00;;;30.80
10598;BMP180;5346;48.766;8.674;2023-06-22T10:19:54;94070.00;;;30.90
10598;BMP180;5346;48.766;8.674;2023-06-22T10:22:22;94067.00;;;31.40
10598;BMP180;5346;48.766;8.674;2023-06-22T10:24:56;94067.00;;;31.60
10598;BMP180;5346;48.766;8.674;2023-06-22T10:27:24;94077.00;;;31.80
10598;BMP180;5346;48.766;8.674;2023-06-22T10:29:59;94069.00;;;31.40
10598;BMP180;5346;48.766;8.674;2023-06-22T10:32:33;94079.00;;;31.20
10598;BMP180;5346;48.766;8.674;2023-06-22T10:35:09;94084.00;;;31.00
10598;BMP180;5346;48.766;8.674;2023-06-22T10:37:45;94092.00;;;30.30
10598;BMP180;5346;48.766;8.674;2023-06-22T10:40:21;94086.00;;;30.20
10598;BMP180;5346;48.766;8.674;2023-06-22T10:42:55;94078.00;;;30.00
10598;BMP180;5346;48.766;8.674;2023-06-22T10:45:29;94080.00;;;30.00
10598;BMP180;5346;48.766;8.674;2023-06-22T10:48:05;94073.00;;;30.40
10598;BMP180;5346;48.766;8.674;2023-06-22T10:50:39;94077.00;;;30.70
10598;BMP180;5346;48.766;8.674;2023-06-22T10:53:08;94072.00;;;31.10
10598;BMP180;5346;48.766;8.674;2023-06-22T10:55:42;94065.00;;;31.60
10598;BMP180;5346;48.766;8.674;2023-06-22T10:58:23;94050.00;;;32.10
10598;BMP180;5346;48.766;8.674;2023-06-22T11:00:51;94047.00;;;33.00
10598;BMP180;5346;48.766;8.674;2023-06-22T11:03:27;94059.00;;;32.90
10598;BMP180;5346;48.766;8.674;2023-06-22T11:06:02;94073.00;;;32.80
10598;BMP180;5346;48.766;8.674;2023-06-22T11:08:37;94081.00;;;32.30
10598;BMP180;5346;48.766;8.674;2023-06-22T11:11:30;94081.00;;;31.90
10598;BMP180;5346;48.766;8.674;2023-06-22T11:13:58;94083.00;;;31.50
10598;BMP180;5346;48.766;8.674;2023-06-22T11:16:32;94079.00;;;30.90
10598;BMP180;5346;48.766;8.674;2023-06-22T11:19:04;94083.00;;;30.60
10598;BMP180;5346;48.766;8.674;2023-06-22T11:21:40;94085.00;;;30.40
10598;BMP180;5346;48.766;8.674;2023-06-22T11:24:07;94083.00;;;30.20
10598;BMP180;5346;48.766;8.674;2023-06-22T11:26:41;94087.00;;;29.90
10598;BMP180;5346;48.766;8.674;2023-06-22T11:29:15;94072.00;;;30.00
10598;BMP180;5346;48.766;8.674;2023-06-22T11:32:04;94081.00;;;29.90
10598;BMP180;5346;48.766;8.674;2023-06-22T11:34:41;94080.00;;;29.60
10598;BMP180;5346;48.766;8.674;2023-06-22T11:37:17;94087.00;;;29.40
10598;BMP180;5346;48.766;8.674;2023-06-22T11:39:52;94075.00;;;29.20
10598;BMP180;5346;48.766;8.674;2023-06-22T11:42:34;94088.00;;;28.80
10598;BMP180;5346;48.766;8.674;2023-06-22T11:45:08;94089.00;;;28.60
10598;BMP180;5346;48.766;8.674;2023-06-22T11:47:43;94092.00;;;28.30
10598;BMP180;5346;48.766;8.674;2023-06-22T11:50:17;94079.00;;;28.10
10598;BMP180;5346;48.766;8.674;2023-06-22T11:52:45;94099.00;;;28.00
10598;BMP180;5346;48.766;8.674;2023-06-22T11:55:20;94103.00;;;27.90
10598;BMP180;5346;48.766;8.674;2023-06-22T11:57:56;94106.00;;;27.90
10598;BMP180;5346;48.766;8.674;2023-06-22T12:00:33;94104.00;;;27.80
10598;BMP180;5346;48.766;8.674;2023-06-22T12:03:18;94106.00;;;27.80
10598;BMP180;5346;48.766;8.674;2023-06-22T12:05:53;94115.00;;;28.00
10598;BMP180;5346;48.766;8.674;2023-06-22T12:08:28;94120.00;;;28.10
10598;BMP180;5346;48.766;8.674;2023-06-22T12:11:17;94128.00;;;28.20
10598;BMP180;5346;48.766;8.674;2023-06-22T12:13:52;94123.00;;;28.40
10598;BMP180;5346;48.766;8.674;2023-06-22T12:16:20;94112.00;;;28.70
10598;BMP180;5346;48.766;8.674;2023-06-22T12:18:49;94119.00;;;28.80
10598;BMP180;5346;48.766;8.674;2023-06-22T12:21:23;94113.00;;;29.00
10598;BMP180;5346;48.766;8.674;2023-06-22T12:23:51;94113.00;;;29.30
10598;BMP180;5346;48.766;8.674;2023-06-22T12:26:25;94097.00;;;29.80
10598;BMP180;5346;48.766;8.674;2023-06-22T12:28:59;94090.00;;;30.50
10598;BMP180;5346;48.766;8.674;2023-06-22T12:31:33;94094.00;;;30.60
10598;BMP180;5346;48.766;8.674;2023-06-22T12:34:01;94096.00;;;30.60
10598;BMP180;5346;48.766;8.674;2023-06-22T12:36:35;94095.00;;;30.80
10598;BMP180;5346;48.766;8.674;2023-06-22T12:39:04;94089.00;;;30.90
10598;BMP180;5346;48.766;8.674;2023-06-22T12:41:39;94087.00;;;31.20
10598;BMP180;5346;48.766;8.674;2023-06-22T12:44:08;94072.00;;;31.60
10598;BMP180;5346;48.766;8.674;2023-06-22T12:46:43;94064.00;;;31.70
10598;BMP180;5346;48.766;8.674;2023-06-22T12:49:11;94067.00;;;31.90
10598;BMP180;5346;48.766;8.674;2023-06-22T12:51:46;94067.00;;;32.20
10598;BMP180;5346;48.766;8.674;2023-06-22T12:54:14;94078.00;;;31.80
10598;BMP180;5346;48.766;8.674;2023-06-22T12:56:51;94083.00;;;31.40
10598;BMP180;5346;48.766;8.674;2023-06-22T12:59:25;94081.00;;;31.40
10598;BMP180;5346;48.766;8.674;2023-06-22T13:01:59;94099.00;;;30.90
10598;BMP180;5346;48.766;8.674;2023-06-22T13:04:33;94112.00;;;30.70
10598;BMP180;5346;48.766;8.674;2023-06-22T13:07:02;94092.00;;;30.30
10598;BMP180;5346;48.766;8.674;2023-06-22T13:09:45;94093.00;;;30.10
10598;BMP180;5346;48.766;8.674;2023-06-22T13:12:21;94093.00;;;30.10
10598;BMP180;5346;48.766;8.674;2023-06-22T13:14:49;94085.00;;;30.20
10598;BMP180;5346;48.766;8.674;2023-06-22T13:17:23;94087.00;;;29.90
10598;BMP180;5346;48.766;8.674;2023-06-22T13:19:51;94086.00;;;29.90
10598;BMP180;5346;48.766;8.674;2023-06-22T13:22:35;94070.00;;;30.00
10598;BMP180;5346;48.766;8.674;2023-06-22T13:25:17;94062.00;;;30.20
10598;BMP180;5346;48.766;8.674;2023-06-22T13:27:54;94061.00;;;30.70
10598;BMP180;5346;48.766;8.674;2023-06-22T13:30:22;94061.00;;;30.90
10598;BMP180;5346;48.766;8.674;2023-06-22T13:32:56;94066.00;;;31.00
10598;BMP180;5346;48.766;8.674;2023-06-22T13:35:26;94057.00;;;31.30
10598;BMP180;5346;48.766;8.674;2023-06-22T13:37:54;94050.00;;;31.80
10598;BMP180;5346;48.766;8.674;2023-06-22T13:40:35;94056.00;;;31.60
10598;BMP180;5346;48.766;8.674;2023-06-22T13:43:03;94053.00;;;31.40
10598;BMP180;5346;48.766;8.674;2023-06-22T13:45:38;94055.00;;;31.30
10598;BMP180;5346;48.766;8.674;2023-06-22T13:48:12;94032.00;;;30.90
10598;BMP180;5346;48.766;8.674;2023-06-22T13:50:40;94021.00;;;30.50
10598;BMP180;5346;48.766;8.674;2023-06-22T13:53:15;94021.00;;;30.40
10598;BMP180;5346;48.766;8.674;2023-06-22T13:55:49;94023.00;;;30.10
10598;BMP180;5346;48.766;8.674;2023-06-22T13:58:18;94025.00;;;29.80
10598;BMP180;5346;48.766;8.674;2023-06-22T14:00:53;94039.00;;;29.50
10598;BMP180;5346;48.766;8.674;2023-06-22T14:03:24;94038.00;;;29.20
10598;BMP180;5346;48.766;8.674;2023-06-22T14:05:52;94031.00;;;29.10
10598;BMP180;5346;48.766;8.674;2023-06-22T14:08:29;94038.00;;;29.10
10598;BMP180;5346;48.766;8.674;2023-06-22T14:11:15;94049.00;;;28.90
10598;BMP180;5346;48.766;8.674;2023-06-22T14:13:50;94046.00;;;29.00
10598;BMP180;5346;48.766;8.674;2023-06-22T14:16:18;94051.00;;;28.90
10598;BMP180;5346;48.766;8.674;2023-06-22T14:18:53;94044.00;;;29.20
10598;BMP180;5346;48.766;8.674;2023-06-22T14:21:24;94035.00;;;29.40
10598;BMP180;5346;48.766;8.674;2023-06-22T14:23:59;94036.00;;;29.50
10598;BMP180;5346;48.766;8.674;2023-06-22T14:26:26;94038.00;;;29.40
10598;BMP180;5346;48.766;8.674;2023-06-22T14:29:00;94050.00;;;29.20
10598;BMP180;5346;48.766;8.674;2023-06-22T14:31:34;94047.00;;;29.00
10598;BMP180;5346;48.766;8.674;2023-06-22T14:34:02;94047.00;;;29.00
10598;BMP180;5346;48.766;8.674;2023-06-22T14:36:37;94044.00;;;28.80
10598;BMP180;5346;48.766;8.674;2023-06-22T14:39:06;94042.00;;;28.50
10598;BMP180;5346;48.766;8.674;2023-06-22T14:41:40;94045.00;;;28.70
10598;BMP180;5346;48.766;8.674;2023-06-22T14:44:15;94034.00;;;28.50
10598;BMP180;5346;48.766;8.674;2023-06-22T14:46:49;94026.00;;;28.80
10598;BMP180;5346;48.766;8.674;2023-06-22T14:49:17;94021.00;;;29.20
10598;BMP180;5346;48.766;8.674;2023-06-22T14:51:51;93974.00;;;30.20
10598;BMP180;5346;48.766;8.674;2023-06-22T14:54:19;93983.00;;;31.50
10598;BMP180;5346;48.766;8.674;2023-06-22T14:56:53;93993.00;;;31.60